Cusick, WA

2:06 PM PDT on September 20, 2014 (GMT -0700)
RAWS FLOWERY TRAIL WA US | Change Station
CLOSE
Current Station
Personal Weather Station
Location: Usk, WA
Elevation: 2680 ft
Nearby Weather Stations

Elev 2680 ft 48.30 °N, 117.41 °W | Updated 36 minutes ago

Clear
Clear
79 °F
Feels Like 79 °F
N
2
Wind Variable Wind from SE
Gusts 7.0 mph

Today
High -- | Low -- °F
--% Chance of Precip.
Yesterday
High -- | Low -- °F
Precip. -- in
6:33 AM 6:51 PM
Waning Crescent, 10% visible
Pressure 30.15 in
Visibility 10.0 miles
Clouds Clear
Heat Index 79 °F
Dew Point 46 °F
Humidity 31%
Rainfall 0.00 in
Snow Depth 1 in , 0 in , 0 in
UV 6 out of 12
Pollen 7.80 out of 12
PM2.5 Good
Flu Activity Not available.
METAR KDEW 201953Z AUTO VRB05KT 10SM CLR 26/09 A3017 RMK AO2 SLP209 T02560089

More Conditions Fewer Conditions

Pressure 30.15 in
Visibility 10.0 miles
Clouds Clear
Heat Index 79 °F
Dew Point 46 °F
Humidity 31%
Rainfall 0.00 in
Snow Depth 1 in , 0 in , 0 in
UV 6 out of 12
Pollen 7.80 out of 12
PM2.5 Good
Flu Activity Not available.
METAR KDEW 201953Z AUTO VRB05KT 10SM CLR 26/09 A3017 RMK AO2 SLP209 T02560089

More Conditions Fewer Conditions

10-Day Weather Forecast

Almanac

Astronomy

Sep. 20, 2014 Rise Set
Actual Time 6:33 AM PDT 6:51 PM PDT
Civil Twilight 6:01 AM PDT 7:22 PM PDT
Nautical Twilight 5:24 AM PDT 7:59 PM PDT
Astronomical Twilight 4:46 AM PDT 8:37 PM PDT
Moon 3:03 AM PDT 5:07 PM PDT
Length of Visible Light 13h 20m
Length of Day
12h 17m
Tomorrow will be 3m 30s shorter.
Waning Crescent, 10% of the Moon is Illuminated
Today
Waning Crescent
Sep 24
New
Oct 1
First Quarter
Oct 8
Full
Oct 15
Last Quarter

Today's Extremes

State Highs State Lows

Community

WunderPhotos

Upload Photos

1,754,947 photos uploaded!

WunderBlogs® & News

Nearby

Air Quality

  Air Quality AQ Index Pollutant
Yesterday Good
OZONE
Yesterday Good
PM10
Current Good
PM2.5
Saturday Good
PM10
Saturday Good
OZONE
Sunday Good
PM10
Sunday Good
OZONE
Monday Good
PM10
Monday Good
OZONE

Snow Depth

Station Depth Elevation
Sentinel Butte 1 in 4920 ft
Quartz Peak 0 in 4700 ft
Sourdough Gulch 0 in 4000 ft
Blewett Pass 0 in 4270 ft
Grouse Camp 0 in 5380 ft

Earthquake Activity

City Distance Mag. Time & Date
No recent earthquake activity has been reported nearby.
Minimum magnitude displayed is 2.5.

Coastal Water Temperatures

Place Temperature
No Stations Reporting

Nearby Weather Stations